Observations for AVIANO IT US-AFB, Italy (LIPA)

LIPA 201855Z 03004KT 5000 BR NSC 04/03 Q1024 RMK FEW FEW200 VIS MIN 4000W WIND THR05 03005KT WIND THR23 02003KT A3027 GRN   
LIPA 201755Z 02003KT 4000 BR NSC 06/04 Q1024 RMK FEW FEW200 VIS MIN 4000 WIND THR05 03003KT WIND THR23 01002KT A3027 GRN
LIPA 201655Z 07001KT 3000 BR NSC 08/05 Q1024 RMK SCT FEW140 VIS MIN 2500SE WIND THR05 00000KT WIND THR23 16001KT A3025 YLO  
LIPA 201555Z 16002KT 2500 BR NSC 10/06 Q1024 RMK SCT SCT200 VIS MIN 2500 WIND THR05 16001KT WIND THR23 00000KT A3024 YLO
LIPA 201455Z 21002KT 2500 BR NSC 10/05 Q1024 RMK SCT SCT200 VIS MIN 2500 WIND THR05 20003KT WIND THR23 22004KT A3024 YLO
LIPA 201355Z 18002KT 3000 BR FEW005 10/05 Q1024 RMK SCT SCT200 VIS MIN 2100S WIND THR05 00000KT WIND THR23 00000KT A3024 YLO
LIPA 201255Z 22002KT 2100 BR FEW010 10/05 Q1024 RMK BKN BKN180 VIS MIN 2100 WIND THR05 19002KT WIND THR23 23001KT A3025 YLO 
LIPA 201155Z 26003KT 2400 BR SCT015 SCT040 09/05 Q1024 RMK BKN VIS MIN 2400 WIND THR05 26003KT WIND THR23 27004KT A3026 YLO 
LIPA 201055Z 25003KT 2600 BR SCT020 SCT040 08/05 Q1025 RMK OVC VIS MIN 2600 WIND THR05 25004KT WIND THR23 28004KT A3028 YLO 
LIPA 200955Z 26003KT 2100 BR SCT020 SCT040 08/06 Q1024 RMK OVC VIS MIN 2100 WIND THR05 26003KT WIND THR23 27004KT A3027 YLO 
LIPA 200855Z 31003KT 1500 BR SCT015 SCT040 07/05 Q1024 RMK OVC VIS MIN 1500 WIND THR05 30003KT WIND THR23 28002KT A3026 AMB 
LIPA 200755Z 32004KT 1500 BR SCT015 SCT035 06/05 Q1024 RMK OVC VIS MIN 1500 WIND THR05 32003KT WIND THR23 34003KT A3025 AMB 
LIPA 200655Z 31004KT 1400 BR SCT015 SCT035 06/06 Q1023 RMK OVC VIS MIN 1400 WIND THR05 31004KT WIND THR23 32004KT A3023 AMB 
LIPA 200555Z 30005KT 1300 1100SW BR SCT025 SCT040 06/06 Q1022 RMK OVC VIS MIN 1100SW WIND THR05 30005KT WIND THR23 29004KT A3021 AMB
LIPA 200455Z 19001KT 1400 1100SW BR SCT015 06/06 Q1022 RMK SCT VIS MIN 1100SW WIND THR05 19001KT WIND THR23 18001KT A3021 AMB   
LIPA 200355Z 28002KT 1500 1100SW BR SCT010 06/06 Q1023 RMK SCT VIS MIN 1100SW WIND THR05 28002KT WIND THR23 29001KT A3021 AMB   
LIPA 192055Z 01007KT 1800 1200SW BR FEW010 BKN020 06/06 Q1023 RMK BKN VIS MIN 1200SW WIND THR05 02008KT WIND THR23 36008KT A3022 AMB
LIPA 191955Z 02005KT 2000 1400SW BR FEW010 BKN020 06/05 Q1023 RMK BKN VIS MIN 1400SW WIND THR05 /////KT WIND THR23 /////KT A3021 AMB